createdAt,value
2022-11-27T00:01:27.299Z,99576.72
2022-11-27T00:03:55.301Z,99572.69
2022-11-27T00:09:00.915Z,99565.56
2022-11-27T00:11:29.749Z,99556.63
2022-11-27T00:13:56.452Z,99558.81
2022-11-27T00:16:24.117Z,99554.63
2022-11-27T00:18:51.395Z,99551.06
2022-11-27T00:21:29.291Z,99554.94
2022-11-27T00:23:58.324Z,99547.66
2022-11-27T00:26:26.070Z,99545.97
2022-11-27T00:28:52.822Z,99545.72
2022-11-27T00:31:20.819Z,99542.84
2022-11-27T00:33:47.820Z,99541.09
2022-11-27T00:36:15.738Z,99537.06
2022-11-27T00:38:42.836Z,99535.34
2022-11-27T00:43:50.655Z,99535.84
2022-11-27T00:46:21.712Z,99524.38
2022-11-27T00:48:52.422Z,99520.53
2022-11-27T00:51:21.097Z,99510.72
2022-11-27T00:53:47.798Z,99509.94
2022-11-27T00:56:17.970Z,99508.50
2022-11-27T00:58:45.044Z,99508.94
2022-11-27T01:01:18.074Z,99500.19
2022-11-27T01:06:20.932Z,99494.16
2022-11-27T01:08:48.097Z,99492.13
2022-11-27T01:11:26.564Z,99489.06
2022-11-27T01:13:55.197Z,99484.75
2022-11-27T01:16:25.337Z,99485.63
2022-11-27T01:18:55.251Z,99474.41
2022-11-27T01:23:55.668Z,99469.16
2022-11-27T01:26:22.477Z,99469.09
2022-11-27T01:28:52.210Z,99465.06
2022-11-27T01:31:22.483Z,99461.44
2022-11-27T01:33:53.504Z,99469.28
2022-11-27T01:36:20.256Z,99469.16
2022-11-27T01:38:46.992Z,99458.34
2022-11-27T01:41:17.136Z,99460.47
2022-11-27T01:43:50.045Z,99460.00
2022-11-27T01:46:16.716Z,99444.63
2022-11-27T01:48:43.561Z,99436.97
2022-11-27T01:53:42.606Z,99452.94
2022-11-27T01:56:09.920Z,99449.50
2022-11-27T01:58:37.013Z,99441.47
2022-11-27T02:01:05.349Z,99437.59
2022-11-27T02:03:32.347Z,99437.31
2022-11-27T02:05:58.980Z,99431.72
2022-11-27T02:08:26.017Z,99435.81
2022-11-27T02:11:04.331Z,99426.00
2022-11-27T02:13:45.787Z,99432.50
2022-11-27T02:16:23.125Z,99426.06
2022-11-27T02:19:00.342Z,99429.78
2022-11-27T02:21:37.975Z,99430.94
2022-11-27T02:24:39.979Z,99430.09
2022-11-27T02:27:18.864Z,99422.72
2022-11-27T02:29:49.083Z,99418.91
2022-11-27T02:32:36.176Z,99412.94
2022-11-27T02:35:18.315Z,99415.47
2022-11-27T02:37:44.895Z,99427.88
2022-11-27T02:43:18.334Z,99427.72
2022-11-27T02:45:48.921Z,99422.00
2022-11-27T02:48:19.702Z,99422.63
2022-11-27T02:50:48.396Z,99417.63
2022-11-27T02:53:21.327Z,99419.81
2022-11-27T02:55:50.409Z,99413.38
2022-11-27T02:58:21.413Z,99424.53
2022-11-27T03:00:49.400Z,99404.31
2022-11-27T03:03:21.650Z,99419.59
2022-11-27T03:05:51.030Z,99408.97
2022-11-27T03:08:29.386Z,99410.88
2022-11-27T03:11:08.074Z,99412.78
2022-11-27T03:13:39.669Z,99412.50
2022-11-27T03:16:26.598Z,99404.53
2022-11-27T03:18:55.908Z,99403.63
2022-11-27T03:21:39.000Z,99409.00
2022-11-27T03:24:07.860Z,99412.31
2022-11-27T03:26:35.752Z,99410.66
2022-11-27T03:29:04.911Z,99404.72
2022-11-27T03:31:32.082Z,99399.16
2022-11-27T03:33:58.861Z,99398.63
2022-11-27T03:36:25.555Z,99385.09
2022-11-27T03:38:55.604Z,99382.66
2022-11-27T03:41:27.150Z,99388.78
2022-11-27T03:44:12.197Z,99388.94
2022-11-27T03:47:21.091Z,99401.81
2022-11-27T03:50:15.161Z,99399.22
2022-11-27T03:52:56.803Z,99395.22
2022-11-27T03:55:48.463Z,99395.94
2022-11-27T03:58:25.432Z,99396.25
2022-11-27T04:00:53.009Z,99397.59
2022-11-27T04:03:25.800Z,99400.78
2022-11-27T04:05:52.891Z,99392.75
2022-11-27T04:08:20.107Z,99387.06
2022-11-27T04:10:47.522Z,99383.72
2022-11-27T04:13:15.007Z,99372.84
2022-11-27T04:15:41.646Z,99375.00
2022-11-27T04:18:08.458Z,99388.94
2022-11-27T04:20:35.195Z,99391.84
2022-11-27T04:23:01.878Z,99380.03
2022-11-27T04:25:28.689Z,99396.19
2022-11-27T04:27:55.483Z,99390.72
2022-11-27T04:30:22.414Z,99401.88
2022-11-27T04:32:49.217Z,99385.09
2022-11-27T04:37:49.233Z,99373.56
2022-11-27T04:40:15.879Z,99367.81
2022-11-27T04:42:42.519Z,99363.94
2022-11-27T04:45:09.706Z,99361.66
2022-11-27T04:47:36.319Z,99360.13
2022-11-27T04:50:03.746Z,99354.28
2022-11-27T04:55:10.251Z,99354.25
2022-11-27T04:57:37.020Z,99349.31
2022-11-27T05:00:05.304Z,99345.88
2022-11-27T05:02:31.992Z,99360.63
2022-11-27T05:04:58.738Z,99369.72
2022-11-27T05:07:25.589Z,99372.47
2022-11-27T05:09:52.322Z,99362.63
2022-11-27T05:12:18.943Z,99358.28
2022-11-27T05:14:45.491Z,99354.16
2022-11-27T05:17:12.123Z,99352.97
2022-11-27T05:19:38.940Z,99345.91
2022-11-27T05:22:05.833Z,99335.41
2022-11-27T05:24:32.725Z,99332.75
2022-11-27T05:26:59.397Z,99333.03
2022-11-27T05:29:26.194Z,99333.63
2022-11-27T05:31:52.993Z,99337.91
2022-11-27T05:34:19.862Z,99335.31
2022-11-27T05:36:46.601Z,99330.03
2022-11-27T05:39:13.792Z,99326.03
2022-11-27T05:41:41.825Z,99336.50
2022-11-27T05:44:11.831Z,99336.22
2022-11-27T05:46:38.667Z,99327.97
2022-11-27T05:49:06.461Z,99319.56
2022-11-27T05:51:33.250Z,99330.78
2022-11-27T05:56:37.837Z,99333.78
2022-11-27T05:59:04.524Z,99344.56
2022-11-27T06:01:31.216Z,99340.91
2022-11-27T06:03:57.929Z,99338.03
2022-11-27T06:06:24.581Z,99344.28
2022-11-27T06:08:51.218Z,99337.94
2022-11-27T06:11:20.619Z,99340.88
2022-11-27T06:13:48.746Z,99342.50
2022-11-27T06:16:21.795Z,99336.84
2022-11-27T06:18:53.330Z,99340.03
2022-11-27T06:21:21.618Z,99341.84
2022-11-27T06:23:48.295Z,99342.94
2022-11-27T06:26:17.793Z,99336.84
2022-11-27T06:28:46.023Z,99343.00
2022-11-27T06:31:18.036Z,99341.97
2022-11-27T06:33:49.262Z,99339.16
2022-11-27T06:36:16.586Z,99339.16
2022-11-27T06:38:43.820Z,99346.38
2022-11-27T06:41:13.237Z,99353.63
2022-11-27T06:43:39.995Z,99346.38
2022-11-27T06:46:08.560Z,99347.03
2022-11-27T06:48:35.483Z,99344.41
2022-11-27T06:51:04.256Z,99351.84
2022-11-27T06:53:31.904Z,99347.63
2022-11-27T06:55:58.739Z,99334.16
2022-11-27T06:58:30.701Z,99332.88
2022-11-27T07:01:03.001Z,99331.06
2022-11-27T07:03:30.238Z,99324.28
2022-11-27T07:06:00.121Z,99316.53
2022-11-27T07:08:26.891Z,99313.31
2022-11-27T07:10:53.545Z,99311.03
2022-11-27T07:13:20.206Z,99319.91
2022-11-27T07:15:46.828Z,99312.00
2022-11-27T07:18:13.487Z,99326.28
2022-11-27T07:20:40.239Z,99332.00
2022-11-27T07:23:06.904Z,99331.69
2022-11-27T07:25:33.525Z,99323.38
2022-11-27T07:28:00.310Z,99325.41
2022-11-27T07:30:26.927Z,99321.56
2022-11-27T07:32:53.570Z,99324.03
2022-11-27T07:35:20.404Z,99322.63
2022-11-27T07:37:47.013Z,99289.06
2022-11-27T07:40:14.923Z,99284.50
2022-11-27T07:42:41.747Z,99285.44
2022-11-27T07:45:09.279Z,99280.84
2022-11-27T07:47:36.085Z,99282.25
2022-11-27T07:50:03.156Z,99271.19
2022-11-27T07:52:29.871Z,99269.03
2022-11-27T07:54:56.497Z,99271.06
2022-11-27T07:57:23.177Z,99266.19
2022-11-27T07:59:49.776Z,99271.50
2022-11-27T08:02:16.605Z,99268.94
2022-11-27T08:04:43.597Z,99266.50
2022-11-27T08:07:10.716Z,99261.31
2022-11-27T08:09:38.115Z,99262.59
2022-11-27T08:14:38.820Z,99264.19
2022-11-27T08:17:05.532Z,99260.53
2022-11-27T08:19:32.173Z,99265.56
2022-11-27T08:21:58.841Z,99266.63
2022-11-27T08:24:25.504Z,99263.16
2022-11-27T08:26:52.431Z,99259.22
2022-11-27T08:29:19.209Z,99246.13
2022-11-27T08:31:46.363Z,99243.94
2022-11-27T08:34:13.051Z,99232.78
2022-11-27T08:36:39.721Z,99249.19
2022-11-27T08:39:06.450Z,99243.31
2022-11-27T08:41:33.094Z,99227.75
2022-11-27T08:43:59.684Z,99224.09
2022-11-27T08:46:26.412Z,99232.50
2022-11-27T08:48:53.085Z,99237.09
2022-11-27T08:53:52.554Z,99215.53
2022-11-27T08:56:22.134Z,99216.34
2022-11-27T08:58:49.330Z,99219.75
2022-11-27T09:01:18.494Z,99211.56
2022-11-27T09:03:45.547Z,99213.03
2022-11-27T09:06:15.524Z,99198.19
2022-11-27T09:08:43.639Z,99193.22
2022-11-27T09:11:12.179Z,99189.63
2022-11-27T09:13:40.448Z,99188.59
2022-11-27T09:16:10.319Z,99190.19
2022-11-27T09:18:37.339Z,99202.75
2022-11-27T09:21:07.628Z,99206.88
2022-11-27T09:23:34.562Z,99212.28
2022-11-27T09:26:02.799Z,99214.03
2022-11-27T09:28:31.782Z,99223.88
2022-11-27T09:31:01.215Z,99232.97
2022-11-27T09:33:29.776Z,99222.47
2022-11-27T09:35:56.822Z,99212.69
2022-11-27T09:38:26.232Z,99204.25
2022-11-27T09:41:01.778Z,99191.94
2022-11-27T09:43:34.703Z,99173.56
2022-11-27T09:46:09.242Z,99168.91
2022-11-27T09:48:41.246Z,99165.31
2022-11-27T09:51:25.438Z,99174.56
2022-11-27T09:53:58.738Z,99188.88
2022-11-27T09:56:25.543Z,99184.75
2022-11-27T09:59:00.046Z,99175.63
2022-11-27T10:01:38.412Z,99162.03
2022-11-27T10:04:13.796Z,99168.91
2022-11-27T10:07:18.279Z,99162.22
2022-11-27T10:10:08.257Z,99139.31
2022-11-27T10:12:59.414Z,99137.53
2022-11-27T10:15:40.278Z,99136.78
2022-11-27T10:18:33.485Z,99130.72
2022-11-27T10:23:56.236Z,99119.88
2022-11-27T10:26:32.140Z,99122.94
2022-11-27T10:29:36.397Z,99121.94
2022-11-27T10:32:54.238Z,99119.56
2022-11-27T10:35:20.210Z,99113.34
2022-11-27T10:38:13.653Z,99111.28
2022-11-27T10:40:47.594Z,99105.50
2022-11-27T10:43:21.241Z,99111.56
2022-11-27T10:45:50.302Z,99106.31
2022-11-27T10:48:17.394Z,99104.41
2022-11-27T10:50:46.032Z,99090.81
2022-11-27T10:53:32.545Z,99087.28
2022-11-27T10:56:15.735Z,99093.31
2022-11-27T10:58:51.763Z,99085.50
2022-11-27T11:01:20.900Z,99080.38
2022-11-27T11:03:47.688Z,99083.53
2022-11-27T11:06:22.434Z,99074.56
2022-11-27T11:09:02.921Z,99061.34
2022-11-27T11:11:29.643Z,99065.28
2022-11-27T11:13:56.304Z,99060.81
2022-11-27T11:16:29.433Z,99043.53
2022-11-27T11:19:01.667Z,99038.66
2022-11-27T11:21:34.176Z,99034.19
2022-11-27T11:24:31.143Z,99026.00
2022-11-27T11:27:14.346Z,99028.84
2022-11-27T11:29:48.386Z,99019.69
2022-11-27T11:32:15.063Z,99009.97
2022-11-27T11:34:47.884Z,98996.31
2022-11-27T11:37:28.804Z,98981.53
2022-11-27T11:40:20.860Z,98975.09
2022-11-27T11:42:59.435Z,98971.94
2022-11-27T11:45:32.853Z,98969.81
2022-11-27T11:48:03.082Z,98975.50
2022-11-27T11:51:00.145Z,98964.31
2022-11-27T11:53:45.638Z,98962.88
2022-11-27T11:56:35.419Z,98965.19
2022-11-27T11:59:08.529Z,98962.00
2022-11-27T12:01:59.200Z,98957.94
2022-11-27T12:04:28.892Z,98948.19
2022-11-27T12:07:12.730Z,98942.69
2022-11-27T12:09:48.408Z,98945.97
2022-11-27T12:12:27.569Z,98951.91
2022-11-27T12:15:05.170Z,98935.63
2022-11-27T12:17:31.710Z,98930.84
2022-11-27T12:20:15.184Z,98925.97
2022-11-27T12:23:06.805Z,98928.00
2022-11-27T12:26:05.109Z,98924.16
2022-11-27T12:28:52.139Z,98912.72
2022-11-27T12:34:47.011Z,98904.75
2022-11-27T12:40:31.314Z,98904.13
2022-11-27T12:43:21.028Z,98900.47
2022-11-27T12:45:59.444Z,98904.16
2022-11-27T12:48:34.792Z,98891.66
2022-11-27T12:51:11.346Z,98883.56
2022-11-27T12:53:49.552Z,98873.34
2022-11-27T12:56:24.974Z,98873.34
2022-11-27T12:58:57.387Z,98864.47
2022-11-27T13:01:30.688Z,98870.09
2022-11-27T13:04:17.363Z,98870.66
2022-11-27T13:07:06.213Z,98878.91
2022-11-27T13:09:51.825Z,98867.56
2022-11-27T13:12:28.294Z,98867.72
2022-11-27T13:15:01.410Z,98864.41
2022-11-27T13:17:37.318Z,98861.22
2022-11-27T13:20:06.545Z,98848.41
2022-11-27T13:22:36.286Z,98849.78
2022-11-27T13:25:04.075Z,98836.09
2022-11-27T13:27:35.604Z,98838.13
2022-11-27T13:30:08.103Z,98836.31
2022-11-27T13:32:42.273Z,98834.22
2022-11-27T13:35:22.114Z,98822.03
2022-11-27T13:37:56.460Z,98821.94
2022-11-27T13:43:41.108Z,98815.66
2022-11-27T13:46:29.618Z,98816.00
2022-11-27T13:49:01.664Z,98822.25
2022-11-27T13:51:31.621Z,98810.78
2022-11-27T13:54:29.157Z,98816.16
2022-11-27T13:56:55.950Z,98819.44
2022-11-27T13:59:25.344Z,98810.59
2022-11-27T14:02:03.377Z,98805.34
2022-11-27T14:04:33.809Z,98802.88
2022-11-27T14:07:09.875Z,98805.78
2022-11-27T14:09:43.979Z,98804.59
2022-11-27T14:12:21.702Z,98801.69
2022-11-27T14:15:08.535Z,98803.16
2022-11-27T14:17:39.834Z,98804.44
2022-11-27T14:20:22.861Z,98804.44
2022-11-27T14:23:11.619Z,98799.88
2022-11-27T14:25:38.802Z,98796.31
2022-11-27T14:28:17.277Z,98792.34
2022-11-27T14:30:48.754Z,98780.19
2022-11-27T14:33:18.400Z,98781.06
2022-11-27T14:35:51.947Z,98770.41
2022-11-27T14:40:27.874Z,98772.03
2022-11-27T14:42:54.473Z,98774.84
2022-11-27T14:45:22.534Z,98763.72
2022-11-27T14:47:52.568Z,98759.66
2022-11-27T14:50:21.350Z,98749.25
2022-11-27T14:52:56.621Z,98742.69
2022-11-27T14:55:23.979Z,98747.22
2022-11-27T14:57:51.697Z,98738.06
2022-11-27T15:00:32.540Z,98722.41
2022-11-27T15:03:09.957Z,98713.44
2022-11-27T15:05:39.286Z,98707.34
2022-11-27T15:08:09.952Z,98709.72
2022-11-27T15:10:40.511Z,98693.88
2022-11-27T15:13:20.960Z,98697.25
2022-11-27T15:15:56.096Z,98695.22
2022-11-27T15:18:24.447Z,98693.56
2022-11-27T15:20:51.913Z,98694.09
2022-11-27T15:23:24.528Z,98690.81
2022-11-27T15:26:03.444Z,98688.56
2022-11-27T15:28:32.688Z,98684.59
2022-11-27T15:30:59.843Z,98688.78
2022-11-27T15:36:17.761Z,98686.75
2022-11-27T15:38:45.769Z,98686.84
2022-11-27T15:41:28.168Z,98684.13
2022-11-27T15:43:55.817Z,98672.94
2022-11-27T15:46:30.406Z,98674.72
2022-11-27T15:48:57.242Z,98670.75
2022-11-27T15:51:24.242Z,98676.44
2022-11-27T15:53:50.964Z,98677.00
2022-11-27T15:56:18.089Z,98671.22
2022-11-27T15:58:44.839Z,98672.09
2022-11-27T16:01:11.806Z,98682.19
2022-11-27T16:03:40.165Z,98676.44
2022-11-27T16:06:08.838Z,98670.28
2022-11-27T16:08:36.706Z,98672.09
2022-11-27T16:11:09.317Z,98670.72
2022-11-27T16:13:35.929Z,98674.69
2022-11-27T16:16:04.080Z,98682.94
2022-11-27T16:18:31.581Z,98686.66
2022-11-27T16:21:05.848Z,98684.28
2022-11-27T16:23:33.347Z,98680.16
2022-11-27T16:26:00.573Z,98672.63
2022-11-27T16:28:28.682Z,98682.31
2022-11-27T16:30:57.065Z,98684.22
2022-11-27T16:33:30.910Z,98687.63
2022-11-27T16:36:08.309Z,98679.66
2022-11-27T16:38:35.244Z,98686.78
2022-11-27T16:41:06.945Z,98670.38
2022-11-27T16:43:39.449Z,98671.16
2022-11-27T16:46:14.803Z,98667.28
2022-11-27T16:48:42.670Z,98657.88
2022-11-27T16:51:12.980Z,98655.75
2022-11-27T16:53:41.563Z,98651.66
2022-11-27T16:56:09.828Z,98646.69
2022-11-27T17:01:12.658Z,98646.38
2022-11-27T17:03:39.505Z,98644.19
2022-11-27T17:06:10.922Z,98638.91
2022-11-27T17:08:38.693Z,98641.69
2022-11-27T17:11:10.557Z,98634.69
2022-11-27T17:13:37.379Z,98627.66
2022-11-27T17:16:05.670Z,98610.13
2022-11-27T17:18:33.073Z,98606.94
2022-11-27T17:21:27.713Z,98601.22
2022-11-27T17:23:56.310Z,98602.94
2022-11-27T17:26:24.087Z,98600.09
2022-11-27T17:31:25.602Z,98585.34
2022-11-27T17:33:56.884Z,98578.94
2022-11-27T17:36:24.747Z,98576.94
2022-11-27T17:38:52.240Z,98566.31
2022-11-27T17:41:19.194Z,98569.69
2022-11-27T17:43:46.286Z,98575.63
2022-11-27T17:46:29.452Z,98575.13
2022-11-27T17:48:59.184Z,98563.06
2022-11-27T17:51:26.995Z,98573.03
2022-11-27T17:53:53.659Z,98570.88
2022-11-27T17:56:21.296Z,98573.91
2022-11-27T17:58:48.314Z,98572.81
2022-11-27T18:01:21.226Z,98562.31
2022-11-27T18:03:48.478Z,98563.59
2022-11-27T18:06:17.390Z,98557.13
2022-11-27T18:08:45.310Z,98559.56
2022-11-27T18:11:21.355Z,98564.97
2022-11-27T18:13:48.865Z,98558.03
2022-11-27T18:16:19.228Z,98547.44
2022-11-27T18:18:46.825Z,98536.53
2022-11-27T18:21:18.514Z,98529.88
2022-11-27T18:24:21.378Z,98535.13
2022-11-27T18:27:00.393Z,98534.41
2022-11-27T18:29:21.184Z,98525.81
2022-11-27T18:31:47.841Z,98526.00
2022-11-27T18:34:14.495Z,98512.44
2022-11-27T18:36:41.101Z,98506.91
2022-11-27T18:39:07.896Z,98504.88
2022-11-27T18:41:34.931Z,98518.72
2022-11-27T18:44:01.552Z,98530.03
2022-11-27T18:46:28.515Z,98527.25
2022-11-27T18:51:26.748Z,98539.06
2022-11-27T18:53:54.582Z,98532.94
2022-11-27T18:56:26.638Z,98528.91
2022-11-27T18:58:54.156Z,98513.06
2022-11-27T19:01:27.641Z,98510.78
2022-11-27T19:03:54.955Z,98506.25
2022-11-27T19:06:24.849Z,98500.34
2022-11-27T19:08:51.633Z,98498.25
2022-11-27T19:13:55.958Z,98504.72
2022-11-27T19:16:29.183Z,98500.44
2022-11-27T19:18:57.622Z,98486.97
2022-11-27T19:21:27.248Z,98489.03
2022-11-27T19:23:54.353Z,98488.22
2022-11-27T19:26:23.455Z,98484.25
2022-11-27T19:28:55.042Z,98467.31
2022-11-27T19:31:23.388Z,98470.25
2022-11-27T19:33:59.026Z,98467.34
2022-11-27T19:36:26.223Z,98455.09
2022-11-27T19:38:56.622Z,98450.91
2022-11-27T19:41:24.441Z,98444.53
2022-11-27T19:43:51.383Z,98437.66
2022-11-27T19:46:18.007Z,98433.78
2022-11-27T19:48:45.278Z,98444.88
2022-11-27T19:53:50.696Z,98429.16
2022-11-27T19:56:17.758Z,98423.88
2022-11-27T19:58:44.679Z,98423.59
2022-11-27T20:01:17.044Z,98426.31
2022-11-27T20:03:44.583Z,98423.59
2022-11-27T20:06:14.012Z,98412.97
2022-11-27T20:16:23.060Z,98431.72
2022-11-27T20:18:49.938Z,98440.06
2022-11-27T20:21:21.927Z,98439.59
2022-11-27T20:23:50.799Z,98435.56
2022-11-27T20:28:53.423Z,98426.91
2022-11-27T20:31:24.351Z,98427.56
2022-11-27T20:33:53.015Z,98420.50
2022-11-27T20:36:21.644Z,98418.97
2022-11-27T20:38:49.025Z,98410.47
2022-11-27T20:41:18.077Z,98408.53
2022-11-27T20:43:45.130Z,98410.16
2022-11-27T20:46:13.566Z,98394.72
2022-11-27T20:51:15.450Z,98397.19
2022-11-27T20:53:43.699Z,98396.81
2022-11-27T20:56:11.906Z,98393.94
2022-11-27T20:58:40.654Z,98393.66
2022-11-27T21:01:19.868Z,98377.78
2022-11-27T21:03:48.800Z,98390.06
2022-11-27T21:08:49.990Z,98377.25
2022-11-27T21:11:25.280Z,98358.44
2022-11-27T21:13:57.417Z,98354.00
2022-11-27T21:16:26.147Z,98365.97
2022-11-27T21:18:54.097Z,98364.50
2022-11-27T21:21:20.842Z,98366.56
2022-11-27T21:23:47.594Z,98345.16
2022-11-27T21:26:16.364Z,98355.53
2022-11-27T21:28:43.348Z,98366.81
2022-11-27T21:31:17.240Z,98373.81
2022-11-27T21:33:49.048Z,98368.03
2022-11-27T21:36:16.738Z,98364.81
2022-11-27T21:41:17.655Z,98351.47
2022-11-27T21:43:45.624Z,98367.22
2022-11-27T21:46:17.426Z,98379.16
2022-11-27T21:48:45.547Z,98358.84
2022-11-27T21:51:15.526Z,98383.59
2022-11-27T21:53:43.970Z,98373.91
2022-11-27T21:56:13.093Z,98373.88
2022-11-27T22:01:15.496Z,98361.09
2022-11-27T22:03:43.117Z,98344.78
2022-11-27T22:06:15.141Z,98332.28
2022-11-27T22:08:44.199Z,98328.31
2022-11-27T22:11:13.387Z,98328.06
2022-11-27T22:13:41.318Z,98325.13
2022-11-27T22:16:17.490Z,98316.53
2022-11-27T22:18:44.668Z,98316.97
2022-11-27T22:21:12.934Z,98316.38
2022-11-27T22:23:40.543Z,98316.84
2022-11-27T22:28:41.918Z,98303.06
2022-11-27T22:33:45.489Z,98302.41
2022-11-27T22:36:24.911Z,98318.00
2022-11-27T22:41:27.319Z,98331.66
2022-11-27T22:43:53.994Z,98326.50
2022-11-27T22:46:35.601Z,98313.84
2022-11-27T22:49:05.853Z,98308.56
2022-11-27T22:54:07.664Z,98311.59
2022-11-27T22:56:34.545Z,98301.31
2022-11-27T22:59:30.544Z,98296.22
2022-11-27T23:01:48.821Z,98278.63
2022-11-27T23:04:16.055Z,98279.66
2022-11-27T23:06:44.620Z,98276.81
2022-11-27T23:14:22.288Z,98271.16
2022-11-27T23:16:49.226Z,98256.94
2022-11-27T23:21:53.786Z,98248.41
2022-11-27T23:24:21.028Z,98243.63
2022-11-27T23:26:48.154Z,98236.63
2022-11-27T23:29:14.853Z,98234.38
2022-11-27T23:31:42.760Z,98241.38
2022-11-27T23:34:13.767Z,98234.16
2022-11-27T23:39:18.785Z,98199.38
2022-11-27T23:44:17.758Z,98196.94
2022-11-27T23:46:44.425Z,98191.06
2022-11-27T23:49:11.142Z,98193.41
2022-11-27T23:51:37.876Z,98192.63
2022-11-27T23:54:09.337Z,98195.34
2022-11-27T23:56:37.241Z,98188.78
2022-11-27T23:59:04.519Z,98197.72
